This is the latest recevied weather packets stored in our database for station/object MeshWX-1. If no packets are shown the sender has not sent any weather packets the latest 10 day(s).
| Time | Temp. | Humidity | Pressure | Rain* | Wind** | Luminosity | Snow |
|---|---|---|---|---|---|---|---|
| 1788042366 | 19.44° C | 82% | 999.5 hPa | - | - | - | - |
| 1788041694 | 19.44° C | 82% | 999.5 hPa | - | - | - | - |
| 1788040461 | 19.44° C | 82% | 999.5 hPa | - | - | - | - |
| 1788039534 | 19.44° C | 86% | 999.8 hPa | - | - | - | - |
| 1788038301 | 19.44° C | 86% | 999.8 hPa | - | - | - | - |
| 1788038078 | 19.44° C | 85% | 1001.1 hPa | - | - | - | - |
| 1788037374 | 19.44° C | 85% | 1001.1 hPa | - | - | - | - |
| 1788036231 | 19.44° C | 85% | 1001.1 hPa | - | - | - | - |
| 1788035274 | 19.44° C | 85% | 1001 hPa | - | - | - | - |
| 1788034215 | 19.44° C | 85% | 1001 hPa | - | - | - | - |
| 1788033936 | 18.89° C | 83% | 1001.1 hPa | - | - | - | - |
| 1788033294 | 18.89° C | 83% | 1001.1 hPa | - | - | - | - |
| 1788032235 | 18.89° C | 83% | 1001.1 hPa | - | - | - | - |
| 1788031254 | 19.44° C | 83% | 1001.1 hPa | - | - | - | - |
| 1788030219 | 19.44° C | 83% | 1001.1 hPa | - | - | - | - |
| 1788030010 | 21.67° C | 63% | 1001.2 hPa | - | - | - | - |
| 1788029213 | 21.67° C | 63% | 1001.2 hPa | - | - | - | - |
| 1788028148 | 21.67° C | 63% | 1001.2 hPa | - | - | - | - |
| 1788027053 | 26.67° C | 37% | 1000.3 hPa | - | - | - | - |
| 1788026024 | 26.67° C | 37% | 1000.3 hPa | - | - | - | - |
| 1788025797 | 27.22° C | 35% | 998 hPa | - | - | - | - |
| 1788024953 | 27.22° C | 35% | 998 hPa | - | - | - | - |
| 1788023990 | 27.22° C | 35% | 998 hPa | - | - | - | - |
| 1788022793 | 28.33° C | 32% | 997.5 hPa | - | - | - | - |
| 1788021884 | 28.33° C | 32% | 997.5 hPa | - | - | - | - |
* Rain since midnight (hover to see other rain measurements)
** Current wind speed in m/s (hover to see current wind gust speed)